Time,TemperatureF,DewpointF,PressureIn,WindDirection,WindDirectionDegrees,WindSpeedMPH,WindSpeedGustMPH,Humidity,HourlyPrecipIn,Conditions,Clouds,dailyrainin,SoftwareType,DateUTC
2013-11-06 00:06:00,53.4,46.0,30.10,SSW,194,9.0,9.0,75,0.00,,,0.00,weatherlink.com 1.10,2013-11-06 05:06:00,
2013-11-06 00:21:00,53.3,46.0,30.10,SSW,197,2.0,11.0,75,0.00,,,0.00,weatherlink.com 1.10,2013-11-06 05:21:00,
2013-11-06 00:36:00,53.5,45.0,30.09,SSE,157,3.0,10.0,74,0.00,,,0.00,weatherlink.com 1.10,2013-11-06 05:36:00,
2013-11-06 00:51:00,53.8,45.0,30.10,SE,129,2.0,11.0,73,0.00,,,0.00,weatherlink.com 1.10,2013-11-06 05:51:00,
2013-11-06 01:06:00,53.3,46.0,30.09,West,276,3.0,11.0,76,0.00,,,0.00,weatherlink.com 1.10,2013-11-06 06:06:00,
2013-11-06 01:21:00,52.1,46.0,30.08,WSW,245,2.0,11.0,81,0.00,,,0.00,weatherlink.com 1.10,2013-11-06 06:21:00,
2013-11-06 01:36:00,52.4,46.0,30.07,South,174,4.0,8.0,80,0.00,,,0.00,weatherlink.com 1.10,2013-11-06 06:36:00,
2013-11-06 01:51:00,52.6,46.0,30.05,SSW,197,0.0,5.0,79,0.00,,,0.00,weatherlink.com 1.10,2013-11-06 06:51:00,
2013-11-06 02:06:00,53.2,46.0,30.05,SW,229,3.0,6.0,76,0.00,,,0.00,weatherlink.com 1.10,2013-11-06 07:06:00,
2013-11-06 02:21:00,53.8,46.0,30.05,West,259,0.0,6.0,74,0.00,,,0.00,weatherlink.com 1.10,2013-11-06 07:21:00,
2013-11-06 02:36:00,54.3,45.0,30.03,ESE,105,3.0,9.0,72,0.00,,,0.00,weatherlink.com 1.10,2013-11-06 07:36:00,
2013-11-06 02:51:00,54.9,45.0,30.02,SSE,165,2.0,7.0,70,0.00,,,0.00,weatherlink.com 1.10,2013-11-06 07:51:00,
2013-11-06 03:06:00,55.4,45.0,30.02,SSW,194,0.0,12.0,69,0.00,,,0.00,weatherlink.com 1.10,2013-11-06 08:06:00,
2013-11-06 03:21:00,55.9,46.0,30.01,SSE,154,4.0,10.0,69,0.00,,,0.00,weatherlink.com 1.10,2013-11-06 08:21:00,
2013-11-06 03:36:00,56.1,46.0,30.00,SE,146,1.0,15.0,69,0.00,,,0.00,weatherlink.com 1.10,2013-11-06 08:36:00,
2013-11-06 03:52:00,55.6,47.0,29.99,ESE,108,6.0,13.0,73,0.01,,,0.01,weatherlink.com 1.10,2013-11-06 08:52:00,
2013-11-06 04:07:00,55.2,47.0,29.97,South,174,2.0,12.0,74,0.01,,,0.01,weatherlink.com 1.10,2013-11-06 09:07:00,
2013-11-06 04:22:00,55.3,48.0,29.97,ESE,120,4.0,9.0,75,0.01,,,0.01,weatherlink.com 1.10,2013-11-06 09:22:00,
2013-11-06 04:37:00,55.5,48.0,29.97,SSW,208,5.0,12.0,75,0.01,,,0.01,weatherlink.com 1.10,2013-11-06 09:37:00,
2013-11-06 04:52:00,56.1,49.0,29.96,SW,236,6.0,13.0,76,0.00,,,0.01,weatherlink.com 1.10,2013-11-06 09:52:00,
2013-11-06 05:07:00,56.0,50.0,29.96,ESE,108,5.0,10.0,80,0.00,,,0.01,weatherlink.com 1.10,2013-11-06 10:07:00,
2013-11-06 05:22:00,55.3,51.0,29.95,East,94,5.0,13.0,84,0.01,,,0.02,weatherlink.com 1.10,2013-11-06 10:22:00,
2013-11-06 05:37:00,54.5,51.0,29.95,South,174,3.0,12.0,87,0.02,,,0.03,weatherlink.com 1.10,2013-11-06 10:37:00,
2013-11-06 05:52:00,53.7,51.0,29.94,NW,321,1.0,8.0,89,0.03,,,0.04,weatherlink.com 1.10,2013-11-06 10:52:00,
2013-11-06 06:07:00,53.5,51.0,29.93,West,276,1.0,8.0,90,0.03,,,0.04,weatherlink.com 1.10,2013-11-06 11:07:00,
2013-11-06 06:22:00,53.4,51.0,29.92,WNW,292,4.0,15.0,91,0.02,,,0.04,weatherlink.com 1.10,2013-11-06 11:22:00,
2013-11-06 06:52:00,53.9,51.0,29.91,SW,225,2.0,13.0,90,0.00,,,0.04,weatherlink.com 1.10,2013-11-06 11:52:00,
2013-11-06 07:07:00,54.4,52.0,29.91,SSE,167,9.0,10.0,90,0.00,,,0.04,weatherlink.com 1.10,2013-11-06 12:07:00,
2013-11-06 07:22:00,55.0,52.0,29.92,SE,129,1.0,11.0,90,0.00,,,0.04,weatherlink.com 1.10,2013-11-06 12:22:00,
2013-11-06 07:37:00,54.6,53.0,29.92,West,274,6.0,8.0,93,0.05,,,0.09,weatherlink.com 1.10,2013-11-06 12:37:00,
2013-11-06 07:52:00,54.5,53.0,29.91,SSE,150,12.0,12.0,94,0.14,,,0.18,weatherlink.com 1.10,2013-11-06 12:52:00,
2013-11-06 08:07:00,54.3,53.0,29.91,ESE,117,4.0,17.0,95,0.17,,,0.21,weatherlink.com 1.10,2013-11-06 13:07:00,
2013-11-06 08:22:00,54.2,53.0,29.90,SE,124,5.0,9.0,95,0.21,,,0.25,weatherlink.com 1.10,2013-11-06 13:22:00,
2013-11-06 08:37:00,54.2,53.0,29.91,WSW,257,5.0,10.0,95,0.21,,,0.30,weatherlink.com 1.10,2013-11-06 13:37:00,
2013-11-06 08:52:00,54.1,53.0,29.91,WSW,250,3.0,12.0,95,0.18,,,0.36,weatherlink.com 1.10,2013-11-06 13:52:00,
2013-11-06 09:07:00,54.2,53.0,29.90,South,176,5.0,10.0,95,0.17,,,0.38,weatherlink.com 1.10,2013-11-06 14:07:00,
2013-11-06 09:22:00,54.3,53.0,29.90,SSW,193,3.0,11.0,95,0.17,,,0.42,weatherlink.com 1.10,2013-11-06 14:22:00,
2013-11-06 09:37:00,54.4,53.0,29.90,South,191,2.0,9.0,95,0.13,,,0.43,weatherlink.com 1.10,2013-11-06 14:37:00,
2013-11-06 09:52:00,54.3,53.0,29.90,WSW,246,6.0,11.0,96,0.12,,,0.48,weatherlink.com 1.10,2013-11-06 14:52:00,
2013-11-06 10:07:00,54.4,53.0,29.90,SSE,151,1.0,8.0,96,0.18,,,0.57,weatherlink.com 1.10,2013-11-06 15:07:00,
2013-11-06 10:22:00,54.5,53.0,29.89,NW,304,2.0,11.0,96,0.21,,,0.63,weatherlink.com 1.10,2013-11-06 15:22:00,
2013-11-06 10:37:00,54.6,54.0,29.88,South,173,2.0,8.0,96,0.26,,,0.69,weatherlink.com 1.10,2013-11-06 15:37:00,
2013-11-06 10:52:00,54.6,54.0,29.88,WNW,288,3.0,10.0,96,0.22,,,0.71,weatherlink.com 1.10,2013-11-06 15:52:00,
2013-11-06 11:07:00,54.7,54.0,29.87,WSW,238,1.0,14.0,96,0.15,,,0.72,weatherlink.com 1.10,2013-11-06 16:07:00,
2013-11-06 11:22:00,54.6,54.0,29.87,West,261,1.0,10.0,96,0.10,,,0.73,weatherlink.com 1.10,2013-11-06 16:22:00,
2013-11-06 11:37:00,54.7,54.0,29.86,SSW,200,1.0,11.0,96,0.05,,,0.74,weatherlink.com 1.10,2013-11-06 16:37:00,
2013-11-06 11:52:00,54.6,54.0,29.86,West,270,8.0,11.0,96,0.03,,,0.74,weatherlink.com 1.10,2013-11-06 16:52:00,
2013-11-06 12:07:00,54.6,54.0,29.85,East,101,5.0,9.0,96,0.04,,,0.76,weatherlink.com 1.10,2013-11-06 17:07:00,
2013-11-06 12:22:00,54.6,54.0,29.86,West,260,3.0,7.0,96,0.06,,,0.79,weatherlink.com 1.10,2013-11-06 17:22:00,
2013-11-06 12:37:00,54.5,53.0,29.84,SW,221,3.0,9.0,96,0.08,,,0.82,weatherlink.com 1.10,2013-11-06 17:37:00,
2013-11-06 12:53:00,54.5,53.0,29.81,SE,146,0.0,7.0,96,0.10,,,0.84,weatherlink.com 1.10,2013-11-06 17:53:00,
2013-11-06 13:08:00,54.7,54.0,29.82,East,83,2.0,5.0,96,0.09,,,0.85,weatherlink.com 1.10,2013-11-06 18:08:00,
2013-11-06 13:23:00,54.8,53.0,29.82,West,263,7.0,15.0,95,0.06,,,0.85,weatherlink.com 1.10,2013-11-06 18:23:00,
2013-11-06 13:38:00,54.8,53.0,29.82,SW,222,6.0,10.0,95,0.03,,,0.85,weatherlink.com 1.10,2013-11-06 18:38:00,
2013-11-06 13:53:00,54.9,54.0,29.81,SSE,163,2.0,7.0,95,0.00,,,0.85,weatherlink.com 1.10,2013-11-06 18:53:00,
2013-11-06 14:08:00,54.9,54.0,29.83,WSW,250,1.0,9.0,95,0.00,,,0.85,weatherlink.com 1.10,2013-11-06 19:08:00,
2013-11-06 14:23:00,54.9,53.0,29.82,North,9,2.0,11.0,94,0.00,,,0.85,weatherlink.com 1.10,2013-11-06 19:23:00,
2013-11-06 14:38:00,54.7,53.0,29.84,SW,221,8.0,11.0,94,0.01,,,0.86,weatherlink.com 1.10,2013-11-06 19:38:00,
2013-11-06 14:53:00,54.5,53.0,29.84,WSW,243,2.0,13.0,95,0.02,,,0.87,weatherlink.com 1.10,2013-11-06 19:53:00,
2013-11-06 15:08:00,54.4,53.0,29.84,South,188,3.0,12.0,95,0.02,,,0.87,weatherlink.com 1.10,2013-11-06 20:08:00,
2013-11-06 15:23:00,54.3,53.0,29.84,SSE,163,0.0,10.0,95,0.02,,,0.87,weatherlink.com 1.10,2013-11-06 20:23:00,
2013-11-06 15:38:00,54.3,53.0,29.84,WNW,297,2.0,8.0,96,0.01,,,0.87,weatherlink.com 1.10,2013-11-06 20:38:00,
2013-11-06 15:53:00,52.2,50.0,29.85,West,273,1.0,9.0,93,0.00,,,0.87,weatherlink.com 1.10,2013-11-06 20:53:00,
2013-11-06 16:08:00,49.2,47.0,29.88,WNW,289,2.0,7.0,93,0.00,,,0.87,weatherlink.com 1.10,2013-11-06 21:08:00,
2013-11-06 16:23:00,46.9,45.0,29.90,NNW,338,6.0,9.0,94,0.01,,,0.88,weatherlink.com 1.10,2013-11-06 21:23:00,
2013-11-06 16:38:00,45.5,44.0,29.90,NW,309,4.0,9.0,95,0.02,,,0.89,weatherlink.com 1.10,2013-11-06 21:38:00,
2013-11-06 16:53:00,44.7,43.0,29.91,NNW,335,1.0,6.0,95,0.02,,,0.89,weatherlink.com 1.10,2013-11-06 21:53:00,
2013-11-06 17:08:00,44.2,43.0,29.92,SW,233,2.0,7.0,96,0.03,,,0.90,weatherlink.com 1.10,2013-11-06 22:08:00,
2013-11-06 17:23:00,43.6,43.0,29.93,NNW,328,1.0,6.0,96,0.02,,,0.90,weatherlink.com 1.10,2013-11-06 22:23:00,
2013-11-06 17:38:00,43.1,42.0,29.95,NW,316,2.0,6.0,96,0.01,,,0.90,weatherlink.com 1.10,2013-11-06 22:38:00,
2013-11-06 17:53:00,42.9,42.0,29.96,NW,322,3.0,6.0,96,0.01,,,0.90,weatherlink.com 1.10,2013-11-06 22:53:00,
2013-11-06 18:08:00,42.6,42.0,29.95,NW,323,1.0,4.0,96,0.00,,,0.90,weatherlink.com 1.10,2013-11-06 23:08:00,
2013-11-06 18:23:00,42.3,41.0,29.97,NNW,329,1.0,5.0,96,0.00,,,0.90,weatherlink.com 1.10,2013-11-06 23:23:00,
2013-11-06 18:38:00,42.2,41.0,30.00,WNW,295,0.0,4.0,96,0.00,,,0.90,weatherlink.com 1.10,2013-11-06 23:38:00,
2013-11-06 18:53:00,42.1,41.0,29.99,WNW,294,2.0,7.0,96,0.00,,,0.90,weatherlink.com 1.10,2013-11-06 23:53:00,
2013-11-06 19:08:00,42.0,41.0,30.00,NNW,335,1.0,5.0,96,0.00,,,0.90,weatherlink.com 1.10,2013-11-07 00:08:00,
2013-11-06 19:23:00,41.9,41.0,30.00,North,1,2.0,6.0,97,0.00,,,0.90,weatherlink.com 1.10,2013-11-07 00:23:00,
2013-11-06 19:38:00,41.9,41.0,30.01,NNW,339,2.0,4.0,97,0.00,,,0.90,weatherlink.com 1.10,2013-11-07 00:38:00,
2013-11-06 19:53:00,41.8,41.0,30.02,NNW,342,3.0,7.0,97,0.01,,,0.91,weatherlink.com 1.10,2013-11-07 00:53:00,
2013-11-06 20:08:00,41.7,41.0,30.03,NW,315,0.0,4.0,97,0.01,,,0.91,weatherlink.com 1.10,2013-11-07 01:08:00,
2013-11-06 20:23:00,41.6,41.0,30.03,NNE,30,1.0,3.0,96,0.01,,,0.91,weatherlink.com 1.10,2013-11-07 01:23:00,
2013-11-06 20:38:00,41.6,41.0,30.05,NNE,25,0.0,2.0,96,0.01,,,0.91,weatherlink.com 1.10,2013-11-07 01:38:00,
2013-11-06 20:53:00,41.5,41.0,30.04,NNW,330,0.0,2.0,96,0.00,,,0.91,weatherlink.com 1.10,2013-11-07 01:53:00,
2013-11-06 21:08:00,41.5,41.0,30.05,NNW,328,0.0,1.0,96,0.01,,,0.92,weatherlink.com 1.10,2013-11-07 02:08:00,
2013-11-06 21:23:00,41.4,40.0,30.04,NW,314,0.0,2.0,96,0.02,,,0.93,weatherlink.com 1.10,2013-11-07 02:23:00,
2013-11-06 21:38:00,41.3,40.0,30.05,NNW,333,0.0,3.0,96,0.03,,,0.94,weatherlink.com 1.10,2013-11-07 02:38:00,
2013-11-06 21:53:00,41.2,40.0,30.05,WNW,297,4.0,5.0,95,0.03,,,0.94,weatherlink.com 1.10,2013-11-07 02:53:00,
2013-11-06 22:09:00,41.0,40.0,30.06,NW,307,1.0,4.0,95,0.02,,,0.94,weatherlink.com 1.10,2013-11-07 03:09:00,
2013-11-06 22:24:00,40.9,40.0,30.07,NW,322,0.0,3.0,95,0.01,,,0.94,weatherlink.com 1.10,2013-11-07 03:24:00,
2013-11-06 22:39:00,40.7,39.0,30.07,NNW,344,0.0,2.0,95,0.00,,,0.94,weatherlink.com 1.10,2013-11-07 03:39:00,
2013-11-06 22:54:00,40.6,40.0,30.05,North,1,0.0,2.0,96,0.00,,,0.94,weatherlink.com 1.10,2013-11-07 03:54:00,
2013-11-06 23:09:00,40.5,40.0,30.07,NW,321,0.0,2.0,96,0.00,,,0.94,weatherlink.com 1.10,2013-11-07 04:09:00,
2013-11-06 23:24:00,40.4,39.0,30.07,NNW,343,0.0,1.0,95,0.00,,,0.94,weatherlink.com 1.10,2013-11-07 04:24:00,
2013-11-06 23:39:00,40.3,39.0,30.07,ESE,113,1.0,1.0,96,0.00,,,0.94,weatherlink.com 1.10,2013-11-07 04:39:00,
2013-11-06 23:54:00,40.2,39.0,30.07,NW,321,0.0,4.0,94,0.00,,,0.94,weatherlink.com 1.10,2013-11-07 04:54:00,